createdAt,value
2022-10-31T00:00:02.807Z,15.89
2022-10-31T00:02:36.505Z,15.85
2022-10-31T00:05:10.747Z,15.59
2022-10-31T00:07:43.644Z,15.77
2022-10-31T00:10:17.486Z,15.90
2022-10-31T00:12:50.314Z,15.82
2022-10-31T00:15:25.677Z,15.94
2022-10-31T00:18:01.056Z,15.95
2022-10-31T00:20:34.440Z,15.81
2022-10-31T00:23:09.084Z,15.79
2022-10-31T00:25:42.595Z,15.88
2022-10-31T00:28:15.411Z,15.88
2022-10-31T00:30:50.755Z,16.00
2022-10-31T00:33:24.516Z,15.90
2022-10-31T00:35:58.049Z,15.91
2022-10-31T00:38:31.633Z,15.79
2022-10-31T00:41:05.562Z,15.93
2022-10-31T00:43:38.817Z,15.63
2022-10-31T00:46:14.797Z,15.87
2022-10-31T00:48:48.783Z,16.07
2022-10-31T00:51:22.682Z,15.76
2022-10-31T00:53:56.509Z,15.88
2022-10-31T00:56:30.552Z,15.84
2022-10-31T00:59:04.361Z,15.46
2022-10-31T01:01:39.885Z,15.55
2022-10-31T01:04:13.698Z,15.58
2022-10-31T01:06:47.641Z,15.52
2022-10-31T01:09:20.831Z,15.57
2022-10-31T01:11:54.051Z,15.79
2022-10-31T01:14:27.737Z,15.66
2022-10-31T01:17:02.916Z,15.63
2022-10-31T01:19:36.590Z,15.64
2022-10-31T01:22:10.389Z,15.70
2022-10-31T01:24:43.911Z,15.72
2022-10-31T01:27:17.564Z,15.92
2022-10-31T01:29:51.169Z,15.85
2022-10-31T01:32:25.501Z,15.72
2022-10-31T01:34:58.879Z,15.80
2022-10-31T01:37:32.966Z,15.80
2022-10-31T01:40:06.958Z,15.69
2022-10-31T01:42:41.224Z,15.70
2022-10-31T01:45:17.929Z,15.75
2022-10-31T01:47:52.547Z,15.70
2022-10-31T01:50:33.429Z,15.53
2022-10-31T01:53:11.055Z,15.51
2022-10-31T01:55:47.702Z,15.44
2022-10-31T01:58:25.873Z,15.37
2022-10-31T02:01:06.658Z,15.50
2022-10-31T02:03:43.767Z,15.56
2022-10-31T02:06:29.327Z,15.50
2022-10-31T02:09:04.997Z,15.46
2022-10-31T02:11:40.764Z,15.56
2022-10-31T02:14:14.031Z,15.19
2022-10-31T02:16:47.624Z,15.47
2022-10-31T02:19:33.114Z,15.47
2022-10-31T02:22:16.079Z,15.41
2022-10-31T02:25:04.790Z,15.55
2022-10-31T02:28:14.977Z,15.42
2022-10-31T02:31:08.558Z,15.51
2022-10-31T02:33:47.152Z,15.48
2022-10-31T02:36:30.476Z,15.34
2022-10-31T02:39:13.719Z,15.56
2022-10-31T02:41:54.691Z,15.54
2022-10-31T02:44:37.177Z,15.32
2022-10-31T02:47:17.651Z,15.43
2022-10-31T02:49:59.158Z,15.42
2022-10-31T02:52:35.147Z,15.46
2022-10-31T02:55:14.157Z,15.38
2022-10-31T02:57:47.866Z,15.17
2022-10-31T03:00:21.681Z,15.30
2022-10-31T03:03:09.267Z,15.20
2022-10-31T03:05:58.025Z,15.14
2022-10-31T03:08:38.342Z,15.35
2022-10-31T03:11:12.802Z,15.31
2022-10-31T03:13:53.189Z,15.32
2022-10-31T03:16:35.138Z,15.12
2022-10-31T03:19:13.949Z,15.24
2022-10-31T03:21:50.073Z,15.24
2022-10-31T03:24:27.765Z,15.15
2022-10-31T03:27:03.237Z,15.16
2022-10-31T03:29:38.942Z,15.30
2022-10-31T03:32:17.690Z,15.16
2022-10-31T03:34:57.884Z,15.36
2022-10-31T03:37:36.039Z,15.28
2022-10-31T03:40:14.012Z,15.19
2022-10-31T03:42:54.823Z,15.45
2022-10-31T03:45:31.788Z,15.31
2022-10-31T03:48:05.134Z,15.43
2022-10-31T03:50:48.218Z,15.49
2022-10-31T03:53:27.401Z,15.49
2022-10-31T03:56:05.442Z,15.62
2022-10-31T03:58:44.842Z,15.58
2022-10-31T04:01:21.607Z,15.54
2022-10-31T04:03:56.654Z,15.58
2022-10-31T04:06:34.378Z,15.49
2022-10-31T04:09:10.882Z,15.59
2022-10-31T04:11:51.573Z,15.41
2022-10-31T04:14:26.403Z,15.69
2022-10-31T04:17:02.055Z,15.55
2022-10-31T04:19:35.917Z,15.60
2022-10-31T04:22:13.883Z,15.59
2022-10-31T04:24:46.710Z,15.70
2022-10-31T04:27:20.608Z,15.61
2022-10-31T04:29:54.190Z,15.60
2022-10-31T04:32:28.017Z,15.77
2022-10-31T04:35:02.286Z,15.78
2022-10-31T04:37:37.454Z,15.66
2022-10-31T04:40:12.346Z,15.68
2022-10-31T04:42:46.152Z,15.50
2022-10-31T04:45:21.401Z,15.54
2022-10-31T04:47:55.668Z,15.72
2022-10-31T04:50:29.315Z,15.52
2022-10-31T04:53:04.619Z,15.71
2022-10-31T04:55:38.172Z,15.62
2022-10-31T04:58:12.246Z,15.51
2022-10-31T05:00:46.106Z,15.68
2022-10-31T05:03:20.005Z,15.77
2022-10-31T05:05:53.880Z,15.75
2022-10-31T05:08:29.003Z,15.51
2022-10-31T05:11:04.588Z,15.71
2022-10-31T05:13:38.573Z,15.89
2022-10-31T05:16:12.148Z,15.96
2022-10-31T05:18:45.852Z,16.00
2022-10-31T05:21:19.864Z,15.80
2022-10-31T05:23:55.012Z,15.90
2022-10-31T05:26:28.619Z,15.80
2022-10-31T05:29:01.573Z,15.98
2022-10-31T05:31:35.376Z,15.90
2022-10-31T05:34:09.098Z,15.71
2022-10-31T05:36:42.645Z,15.99
2022-10-31T05:39:16.879Z,16.22
2022-10-31T05:41:50.400Z,16.00
2022-10-31T05:44:24.396Z,15.61
2022-10-31T05:46:58.190Z,15.63
2022-10-31T05:49:31.574Z,15.98
2022-10-31T05:52:05.665Z,15.77
2022-10-31T05:54:41.039Z,15.99
2022-10-31T05:57:13.850Z,15.91
2022-10-31T05:59:52.344Z,16.00
2022-10-31T06:02:28.415Z,16.02
2022-10-31T06:05:02.171Z,16.01
2022-10-31T06:07:36.683Z,16.13
2022-10-31T06:10:11.748Z,15.92
2022-10-31T06:12:45.361Z,15.95
2022-10-31T06:15:24.181Z,16.12
2022-10-31T06:18:03.553Z,15.93
2022-10-31T06:20:37.776Z,16.15
2022-10-31T06:23:10.599Z,16.18
2022-10-31T06:25:45.624Z,16.10
2022-10-31T06:28:18.661Z,16.13
2022-10-31T06:30:52.355Z,16.04
2022-10-31T06:33:25.265Z,15.83
2022-10-31T06:35:58.235Z,16.04
2022-10-31T06:38:31.869Z,15.90
2022-10-31T06:41:08.303Z,15.64
2022-10-31T06:43:41.069Z,15.95
2022-10-31T06:46:14.715Z,16.15
2022-10-31T06:48:48.343Z,16.12
2022-10-31T06:51:22.037Z,16.21
2022-10-31T06:53:55.702Z,16.21
2022-10-31T06:56:31.248Z,16.00
2022-10-31T06:59:04.263Z,16.15
2022-10-31T07:01:37.884Z,16.14
2022-10-31T07:04:12.022Z,16.26
2022-10-31T07:06:50.885Z,16.16
2022-10-31T07:09:25.366Z,16.30
2022-10-31T07:12:00.459Z,16.21
2022-10-31T07:14:34.134Z,16.10
2022-10-31T07:17:08.121Z,16.33
2022-10-31T07:19:41.687Z,16.33
2022-10-31T07:22:15.428Z,16.32
2022-10-31T07:24:49.184Z,16.43
2022-10-31T07:27:24.484Z,16.32
2022-10-31T07:29:58.179Z,16.24
2022-10-31T07:32:40.406Z,16.44
2022-10-31T07:35:15.534Z,16.43
2022-10-31T07:37:49.515Z,16.45
2022-10-31T07:40:23.840Z,16.47
2022-10-31T07:43:00.171Z,16.59
2022-10-31T07:45:33.832Z,16.71
2022-10-31T07:48:07.090Z,16.57
2022-10-31T07:50:40.255Z,16.63
2022-10-31T07:53:15.768Z,16.93
2022-10-31T07:55:49.301Z,17.27
2022-10-31T07:58:24.566Z,17.41
2022-10-31T08:01:00.340Z,17.45
2022-10-31T08:03:34.206Z,17.64
2022-10-31T08:06:08.407Z,17.89
2022-10-31T08:08:42.040Z,18.17
2022-10-31T08:11:14.990Z,18.10
2022-10-31T08:13:50.158Z,18.01
2022-10-31T08:16:23.031Z,18.26
2022-10-31T08:18:57.004Z,18.16
2022-10-31T08:21:29.838Z,17.89
2022-10-31T08:24:02.867Z,17.88
2022-10-31T08:26:35.923Z,17.82
2022-10-31T08:29:10.252Z,18.04
2022-10-31T08:31:43.629Z,18.25
2022-10-31T08:34:16.488Z,18.12
2022-10-31T08:36:50.078Z,18.17
2022-10-31T08:39:23.946Z,18.26
2022-10-31T08:41:56.834Z,18.05
2022-10-31T08:44:31.117Z,18.31
2022-10-31T08:47:04.786Z,18.32
2022-10-31T08:49:37.624Z,18.15
2022-10-31T08:52:14.315Z,18.28
2022-10-31T08:54:48.489Z,18.31
2022-10-31T08:57:22.177Z,18.38
2022-10-31T08:59:57.193Z,18.15
2022-10-31T09:02:30.096Z,18.10
2022-10-31T09:05:03.480Z,18.76
2022-10-31T09:07:36.390Z,18.82
2022-10-31T09:10:09.900Z,18.66
2022-10-31T09:12:42.712Z,18.62
2022-10-31T09:15:17.748Z,18.59
2022-10-31T09:17:50.970Z,18.19
2022-10-31T09:20:24.972Z,19.00
2022-10-31T09:22:59.187Z,18.94
2022-10-31T09:25:32.507Z,18.94
2022-10-31T09:28:07.913Z,18.82
2022-10-31T09:30:42.198Z,18.83
2022-10-31T09:33:15.775Z,19.00
2022-10-31T09:35:49.660Z,19.21
2022-10-31T09:38:24.615Z,19.24
2022-10-31T09:41:08.577Z,19.07
2022-10-31T09:43:52.579Z,18.42
2022-10-31T09:46:36.993Z,18.42
2022-10-31T09:49:45.906Z,18.40
2022-10-31T09:52:25.846Z,18.51
2022-10-31T09:55:04.420Z,18.36
2022-10-31T09:57:39.555Z,18.86
2022-10-31T10:00:19.541Z,19.34
2022-10-31T10:03:00.681Z,19.29
2022-10-31T10:05:48.020Z,19.03
2022-10-31T10:08:26.319Z,18.59
2022-10-31T10:11:09.923Z,18.68
2022-10-31T10:14:00.094Z,18.76
2022-10-31T10:16:52.090Z,18.80
2022-10-31T10:19:42.469Z,18.77
2022-10-31T10:22:24.414Z,18.67
2022-10-31T10:25:13.325Z,18.90
2022-10-31T10:27:57.566Z,18.77
2022-10-31T10:30:37.991Z,18.62
2022-10-31T10:33:14.347Z,18.71
2022-10-31T10:35:53.359Z,18.38
2022-10-31T10:38:32.258Z,18.81
2022-10-31T10:41:12.203Z,18.90
2022-10-31T10:43:45.063Z,18.93
2022-10-31T10:46:42.605Z,19.10
2022-10-31T10:49:19.515Z,19.12
2022-10-31T10:55:05.141Z,19.31
2022-10-31T10:57:51.177Z,19.47
2022-10-31T11:00:26.358Z,19.67
2022-10-31T11:02:59.699Z,19.73
2022-10-31T11:05:39.041Z,19.18
2022-10-31T11:08:27.704Z,19.94
2022-10-31T11:11:03.087Z,19.99
2022-10-31T11:13:37.815Z,20.16
2022-10-31T11:16:13.586Z,20.22
2022-10-31T11:18:48.769Z,20.14
2022-10-31T11:21:24.036Z,19.81
2022-10-31T11:24:06.296Z,19.68
2022-10-31T11:26:40.455Z,19.41
2022-10-31T11:29:18.859Z,19.29
2022-10-31T11:31:55.610Z,19.16
2022-10-31T11:34:32.923Z,18.92
2022-10-31T11:37:14.881Z,19.31
2022-10-31T11:39:54.455Z,19.10
2022-10-31T11:42:31.136Z,19.10
2022-10-31T11:45:09.833Z,18.83
2022-10-31T11:47:46.715Z,18.73
2022-10-31T11:50:24.793Z,18.99
2022-10-31T11:52:57.961Z,19.03
2022-10-31T11:55:37.669Z,18.93
2022-10-31T11:58:23.833Z,18.81
2022-10-31T12:00:59.045Z,18.58
2022-10-31T12:03:44.863Z,18.42
2022-10-31T12:06:23.836Z,18.57
2022-10-31T12:08:56.659Z,18.63
2022-10-31T12:11:42.708Z,18.78
2022-10-31T12:14:28.936Z,19.04
2022-10-31T12:17:10.589Z,19.07
2022-10-31T12:19:55.351Z,19.06
2022-10-31T12:22:40.257Z,19.26
2022-10-31T12:25:25.451Z,19.40
2022-10-31T12:28:16.392Z,19.13
2022-10-31T12:30:58.899Z,19.33
2022-10-31T12:33:43.358Z,19.15
2022-10-31T12:36:33.849Z,19.09
2022-10-31T12:39:25.947Z,19.03
2022-10-31T12:42:10.351Z,19.12
2022-10-31T12:45:01.716Z,19.18
2022-10-31T12:47:53.624Z,19.05
2022-10-31T12:50:37.191Z,19.27
2022-10-31T12:53:24.794Z,19.48
2022-10-31T12:56:09.822Z,19.35
2022-10-31T12:58:49.127Z,19.16
2022-10-31T13:01:29.397Z,19.28
2022-10-31T13:04:07.932Z,19.30
2022-10-31T13:06:45.190Z,19.40
2022-10-31T13:09:23.042Z,19.49
2022-10-31T13:12:00.456Z,19.52
2022-10-31T13:14:39.316Z,19.52
2022-10-31T13:17:20.886Z,19.50
2022-10-31T13:20:00.512Z,19.65
2022-10-31T13:22:37.588Z,19.34
2022-10-31T13:25:16.841Z,19.03
2022-10-31T13:27:55.163Z,19.20
2022-10-31T13:30:31.591Z,19.24
2022-10-31T13:33:12.484Z,19.31
2022-10-31T13:35:52.285Z,18.90
2022-10-31T13:38:35.856Z,19.22
2022-10-31T13:41:20.449Z,19.03
2022-10-31T13:44:03.224Z,18.85
2022-10-31T13:49:28.519Z,19.12
2022-10-31T13:52:15.641Z,19.10
2022-10-31T13:54:56.619Z,19.08
2022-10-31T13:57:35.119Z,18.70
2022-10-31T14:00:25.379Z,18.70
2022-10-31T14:02:59.764Z,18.81
2022-10-31T14:05:36.527Z,18.67
2022-10-31T14:08:24.117Z,18.70
2022-10-31T14:10:58.418Z,18.88
2022-10-31T14:13:35.692Z,18.85
2022-10-31T14:16:20.804Z,18.85
2022-10-31T14:19:01.573Z,18.74
2022-10-31T14:21:41.098Z,18.76
2022-10-31T14:24:32.170Z,18.66
2022-10-31T14:27:26.817Z,18.76
2022-10-31T14:30:20.083Z,18.71
2022-10-31T14:32:56.206Z,18.46
2022-10-31T14:35:45.482Z,18.60
2022-10-31T14:38:34.948Z,18.60
2022-10-31T14:41:30.702Z,18.54
2022-10-31T14:44:42.077Z,18.43
2022-10-31T14:47:28.417Z,18.38
2022-10-31T14:50:22.462Z,18.51
2022-10-31T14:52:59.329Z,18.69
2022-10-31T14:55:33.894Z,18.41
2022-10-31T14:58:09.316Z,18.36
2022-10-31T15:00:45.405Z,18.39
2022-10-31T15:03:27.549Z,18.15
2022-10-31T15:06:05.201Z,18.31
2022-10-31T15:08:47.638Z,18.24
2022-10-31T15:11:22.833Z,18.18
2022-10-31T15:13:57.132Z,18.23
2022-10-31T15:16:35.656Z,18.32
2022-10-31T15:19:14.143Z,18.37
2022-10-31T15:21:47.811Z,18.14
2022-10-31T15:24:22.317Z,18.31
2022-10-31T15:26:59.636Z,18.27
2022-10-31T15:29:35.161Z,18.25
2022-10-31T15:32:21.634Z,18.14
2022-10-31T15:34:57.664Z,17.93
2022-10-31T15:37:30.609Z,17.92
2022-10-31T15:40:09.831Z,18.03
2022-10-31T15:42:44.568Z,17.77
2022-10-31T15:45:24.380Z,17.78
2022-10-31T15:48:00.002Z,17.71
2022-10-31T15:50:40.444Z,17.96
2022-10-31T15:53:20.500Z,17.87
2022-10-31T15:55:56.772Z,17.84
2022-10-31T15:58:30.576Z,17.66
2022-10-31T16:01:05.731Z,17.57
2022-10-31T16:03:39.734Z,17.95
2022-10-31T16:06:23.100Z,17.79
2022-10-31T16:08:56.539Z,17.84
2022-10-31T16:11:36.380Z,17.66
2022-10-31T16:14:25.336Z,17.83
2022-10-31T16:17:01.164Z,17.50
2022-10-31T16:19:36.718Z,17.60
2022-10-31T16:22:15.432Z,17.55
2022-10-31T16:24:51.693Z,17.64
2022-10-31T16:27:29.551Z,17.62
2022-10-31T16:30:05.316Z,17.57
2022-10-31T16:32:53.382Z,17.66
2022-10-31T16:35:28.644Z,17.65
2022-10-31T16:38:06.388Z,17.57
2022-10-31T16:40:40.535Z,17.64
2022-10-31T16:43:15.368Z,17.50
2022-10-31T16:45:49.862Z,17.55
2022-10-31T16:48:24.443Z,17.61
2022-10-31T16:50:57.389Z,17.46
2022-10-31T16:53:32.340Z,17.41
2022-10-31T16:56:06.321Z,17.60
2022-10-31T16:58:39.141Z,17.53
2022-10-31T17:01:15.073Z,17.56
2022-10-31T17:03:47.913Z,17.53
2022-10-31T17:06:20.725Z,17.33
2022-10-31T17:08:55.417Z,17.25
2022-10-31T17:11:28.650Z,17.41
2022-10-31T17:14:02.479Z,17.41
2022-10-31T17:16:36.379Z,17.59
2022-10-31T17:19:13.021Z,17.54
2022-10-31T17:21:46.027Z,17.61
2022-10-31T17:24:21.158Z,17.54
2022-10-31T17:26:55.235Z,17.55
2022-10-31T17:29:28.011Z,17.66
2022-10-31T17:32:03.547Z,17.52
2022-10-31T17:34:37.140Z,17.80
2022-10-31T17:37:12.896Z,17.78
2022-10-31T17:39:47.069Z,17.73
2022-10-31T17:42:20.502Z,17.48
2022-10-31T17:44:53.310Z,17.33
2022-10-31T17:47:26.124Z,17.16
2022-10-31T17:49:59.809Z,16.98
2022-10-31T17:52:32.657Z,16.91
2022-10-31T17:55:08.122Z,16.71
2022-10-31T17:57:42.085Z,16.45
2022-10-31T18:00:18.161Z,16.31
2022-10-31T18:02:52.405Z,16.12
2022-10-31T18:05:26.317Z,16.06
2022-10-31T18:08:03.747Z,16.07
2022-10-31T18:10:39.993Z,16.19
2022-10-31T18:13:12.975Z,15.85
2022-10-31T18:15:46.596Z,15.86
2022-10-31T18:18:19.715Z,15.79
2022-10-31T18:20:53.857Z,15.75
2022-10-31T18:23:26.686Z,15.89
2022-10-31T18:26:01.920Z,15.82
2022-10-31T18:28:35.723Z,15.77
2022-10-31T18:31:09.485Z,15.61
2022-10-31T18:33:42.583Z,15.70
2022-10-31T18:36:15.680Z,15.86
2022-10-31T18:38:49.624Z,15.76
2022-10-31T18:41:24.860Z,15.69
2022-10-31T18:44:00.195Z,15.69
2022-10-31T18:46:33.166Z,15.55
2022-10-31T18:49:07.247Z,15.25
2022-10-31T18:51:40.778Z,15.47
2022-10-31T18:54:13.726Z,15.37
2022-10-31T18:56:48.730Z,15.53
2022-10-31T18:59:24.802Z,15.50
2022-10-31T19:01:58.613Z,15.42
2022-10-31T19:04:32.445Z,15.59
2022-10-31T19:07:06.108Z,15.49
2022-10-31T19:09:39.071Z,15.50
2022-10-31T19:12:14.202Z,15.67
2022-10-31T19:14:49.316Z,15.52
2022-10-31T19:17:25.180Z,15.62
2022-10-31T19:19:59.069Z,15.64
2022-10-31T19:22:32.787Z,15.66
2022-10-31T19:25:10.701Z,15.82
2022-10-31T19:27:46.379Z,15.81
2022-10-31T19:30:21.738Z,15.79
2022-10-31T19:32:56.674Z,15.58
2022-10-31T19:35:30.122Z,15.55
2022-10-31T19:38:04.059Z,15.22
2022-10-31T19:40:38.396Z,15.44
2022-10-31T19:43:13.523Z,15.57
2022-10-31T19:45:57.794Z,15.69
2022-10-31T19:48:32.213Z,15.69
2022-10-31T19:51:06.963Z,15.80
2022-10-31T19:53:40.750Z,15.91
2022-10-31T19:56:16.174Z,15.80
2022-10-31T19:58:51.839Z,15.86
2022-10-31T20:01:25.921Z,15.78
2022-10-31T20:03:59.754Z,15.76
2022-10-31T20:06:34.747Z,15.69
2022-10-31T20:09:09.696Z,15.80
2022-10-31T20:11:45.061Z,15.69
2022-10-31T20:14:20.149Z,15.74
2022-10-31T20:16:55.550Z,15.84
2022-10-31T20:19:28.479Z,15.75
2022-10-31T20:22:02.452Z,15.82
2022-10-31T20:24:36.075Z,15.91
2022-10-31T20:27:09.762Z,15.78
2022-10-31T20:29:44.715Z,15.82
2022-10-31T20:32:18.461Z,15.73
2022-10-31T20:34:51.975Z,15.68
2022-10-31T20:37:25.990Z,15.76
2022-10-31T20:39:59.488Z,15.62
2022-10-31T20:43:26.933Z,15.66
2022-10-31T20:46:04.550Z,15.73
2022-10-31T20:48:37.521Z,15.85
2022-10-31T20:51:13.970Z,15.89
2022-10-31T20:53:47.117Z,15.83
2022-10-31T20:56:21.946Z,15.93
2022-10-31T20:58:58.057Z,15.86
2022-10-31T21:01:33.415Z,15.87
2022-10-31T21:04:10.122Z,15.92
2022-10-31T21:06:49.072Z,15.74
2022-10-31T21:09:22.699Z,15.61
2022-10-31T21:11:55.693Z,15.69
2022-10-31T21:14:30.276Z,15.70
2022-10-31T21:17:04.108Z,15.65
2022-10-31T21:19:37.497Z,15.72
2022-10-31T21:22:11.329Z,15.82
2022-10-31T21:24:45.397Z,15.81
2022-10-31T21:27:18.981Z,15.84
2022-10-31T21:29:54.294Z,15.97
2022-10-31T21:32:27.937Z,15.79
2022-10-31T21:35:01.774Z,15.90
2022-10-31T21:37:35.761Z,15.89
2022-10-31T21:40:10.724Z,15.87
2022-10-31T21:42:43.983Z,15.99
2022-10-31T21:45:18.316Z,15.99
2022-10-31T21:47:52.262Z,15.99
2022-10-31T21:50:25.133Z,16.17
2022-10-31T21:53:18.501Z,16.15
2022-10-31T21:55:51.278Z,16.13
2022-10-31T21:59:00.701Z,16.37
2022-10-31T22:01:35.863Z,16.38
2022-10-31T22:04:09.800Z,16.25
2022-10-31T22:06:42.671Z,16.24
2022-10-31T22:09:17.599Z,16.32
2022-10-31T22:11:51.420Z,16.39
2022-10-31T22:14:26.044Z,16.35
2022-10-31T22:16:59.808Z,16.42
2022-10-31T22:19:33.432Z,16.48
2022-10-31T22:22:06.337Z,16.53
2022-10-31T22:24:39.130Z,16.54
2022-10-31T22:27:12.976Z,16.62
2022-10-31T22:29:47.178Z,16.70
2022-10-31T22:32:20.004Z,16.56
2022-10-31T22:34:52.816Z,16.66
2022-10-31T22:37:25.652Z,16.51
2022-10-31T22:39:58.448Z,16.67
2022-10-31T22:42:31.435Z,16.73
2022-10-31T22:45:07.014Z,16.70
2022-10-31T22:50:20.745Z,16.62
2022-10-31T22:52:54.497Z,16.67
2022-10-31T22:55:27.446Z,16.80
2022-10-31T22:58:01.281Z,16.75
2022-10-31T23:00:36.935Z,16.68
2022-10-31T23:03:10.769Z,16.84
2022-10-31T23:05:44.765Z,16.96
2022-10-31T23:08:18.631Z,16.87
2022-10-31T23:10:51.524Z,16.89
2022-10-31T23:13:42.467Z,16.84
2022-10-31T23:16:17.495Z,16.87
2022-10-31T23:18:51.473Z,16.98
2022-10-31T23:21:54.918Z,16.84
2022-10-31T23:24:32.889Z,16.88
2022-10-31T23:27:10.133Z,16.80
2022-10-31T23:29:45.672Z,16.81
2022-10-31T23:32:23.383Z,16.79
2022-10-31T23:34:58.746Z,16.82
2022-10-31T23:37:34.927Z,16.73
2022-10-31T23:40:09.708Z,16.81
2022-10-31T23:42:43.345Z,16.79
2022-10-31T23:45:17.305Z,16.80
2022-10-31T23:47:52.328Z,16.80
2022-10-31T23:50:26.073Z,16.82
2022-10-31T23:52:59.902Z,16.65
2022-10-31T23:55:33.848Z,16.74
2022-10-31T23:58:07.543Z,16.66
